sensor_id;sensor_type;location;lat;lon;timestamp;temperature;humidity
20862;DHT22;10591;52.532;13.348;2023-04-08T00:01:26;5.34;89.16
20862;DHT22;10591;52.532;13.348;2023-04-08T00:03:59;5.32;89.16
20862;DHT22;10591;52.532;13.348;2023-04-08T00:06:32;5.34;89.25
20862;DHT22;10591;52.532;13.348;2023-04-08T00:09:03;5.36;89.25
20862;DHT22;10591;52.532;13.348;2023-04-08T00:11:38;5.38;89.26
20862;DHT22;10591;52.532;13.348;2023-04-08T00:14:09;5.36;89.30
20862;DHT22;10591;52.532;13.348;2023-04-08T00:16:40;5.33;89.25
20862;DHT22;10591;52.532;13.348;2023-04-08T00:19:11;5.26;89.30
20862;DHT22;10591;52.532;13.348;2023-04-08T00:21:41;5.29;89.41
20862;DHT22;10591;52.532;13.348;2023-04-08T00:24:12;5.26;89.36
20862;DHT22;10591;52.532;13.348;2023-04-08T00:26:43;5.33;89.42
20862;DHT22;10591;52.532;13.348;2023-04-08T00:29:15;5.39;89.39
20862;DHT22;10591;52.532;13.348;2023-04-08T00:31:45;5.26;89.45
20862;DHT22;10591;52.532;13.348;2023-04-08T00:34:18;5.28;89.45
20862;DHT22;10591;52.532;13.348;2023-04-08T00:36:51;5.26;89.45
20862;DHT22;10591;52.532;13.348;2023-04-08T00:39:21;5.28;89.42
20862;DHT22;10591;52.532;13.348;2023-04-08T00:41:52;5.22;89.41
20862;DHT22;10591;52.532;13.348;2023-04-08T00:44:23;5.28;89.54
20862;DHT22;10591;52.532;13.348;2023-04-08T00:46:54;5.36;89.52
20862;DHT22;10591;52.532;13.348;2023-04-08T00:49:25;5.34;89.49
20862;DHT22;10591;52.532;13.348;2023-04-08T00:51:59;5.20;89.52
20862;DHT22;10591;52.532;13.348;2023-04-08T00:54:30;5.26;89.45
20862;DHT22;10591;52.532;13.348;2023-04-08T00:57:01;5.32;89.38
20862;DHT22;10591;52.532;13.348;2023-04-08T00:59:33;5.23;89.39
20862;DHT22;10591;52.532;13.348;2023-04-08T01:02:20;5.36;89.42
20862;DHT22;10591;52.532;13.348;2023-04-08T01:05:08;5.28;89.49
20862;DHT22;10591;52.532;13.348;2023-04-08T01:07:45;5.32;89.50
20862;DHT22;10591;52.532;13.348;2023-04-08T01:10:19;5.24;89.50
20862;DHT22;10591;52.532;13.348;2023-04-08T01:13:09;5.23;89.52
20862;DHT22;10591;52.532;13.348;2023-04-08T01:15:36;5.18;89.56
20862;DHT22;10591;52.532;13.348;2023-04-08T01:18:12;5.24;89.57
20862;DHT22;10591;52.532;13.348;2023-04-08T01:20:45;5.33;89.57
20862;DHT22;10591;52.532;13.348;2023-04-08T01:26:19;5.22;89.61
20862;DHT22;10591;52.532;13.348;2023-04-08T01:28:48;5.30;89.56
20862;DHT22;10591;52.532;13.348;2023-04-08T01:31:21;5.29;89.49
20862;DHT22;10591;52.532;13.348;2023-04-08T01:33:54;5.24;89.53
20862;DHT22;10591;52.532;13.348;2023-04-08T01:36:26;5.28;89.53
20862;DHT22;10591;52.532;13.348;2023-04-08T01:38:59;5.30;89.52
20862;DHT22;10591;52.532;13.348;2023-04-08T01:41:33;5.34;89.49
20862;DHT22;10591;52.532;13.348;2023-04-08T01:44:05;5.29;89.54
20862;DHT22;10591;52.532;13.348;2023-04-08T01:46:36;5.40;89.48
20862;DHT22;10591;52.532;13.348;2023-04-08T01:49:09;5.42;89.34
20862;DHT22;10591;52.532;13.348;2023-04-08T01:51:40;5.44;89.23
20862;DHT22;10591;52.532;13.348;2023-04-08T01:54:11;5.49;89.25
20862;DHT22;10591;52.532;13.348;2023-04-08T01:56:43;5.42;89.16
20862;DHT22;10591;52.532;13.348;2023-04-08T01:59:16;5.47;89.11
20862;DHT22;10591;52.532;13.348;2023-04-08T02:01:48;5.32;89.11
20862;DHT22;10591;52.532;13.348;2023-04-08T02:04:20;5.34;89.19
20862;DHT22;10591;52.532;13.348;2023-04-08T02:06:54;5.39;89.26
20862;DHT22;10591;52.532;13.348;2023-04-08T02:09:25;5.42;89.10
20862;DHT22;10591;52.532;13.348;2023-04-08T02:11:56;5.49;89.11
20862;DHT22;10591;52.532;13.348;2023-04-08T02:14:29;5.51;89.08
20862;DHT22;10591;52.532;13.348;2023-04-08T02:17:08;5.54;89.04
20862;DHT22;10591;52.532;13.348;2023-04-08T02:19:48;5.35;89.04
20862;DHT22;10591;52.532;13.348;2023-04-08T02:22:41;5.42;88.99
20862;DHT22;10591;52.532;13.348;2023-04-08T02:25:13;5.49;89.00
20862;DHT22;10591;52.532;13.348;2023-04-08T02:27:45;5.56;88.87
20862;DHT22;10591;52.532;13.348;2023-04-08T02:30:19;5.56;89.04
20862;DHT22;10591;52.532;13.348;2023-04-08T02:32:53;5.54;88.95
20862;DHT22;10591;52.532;13.348;2023-04-08T02:35:27;5.53;88.95
20862;DHT22;10591;52.532;13.348;2023-04-08T02:37:58;5.50;88.77
20862;DHT22;10591;52.532;13.348;2023-04-08T02:40:30;5.50;88.77
20862;DHT22;10591;52.532;13.348;2023-04-08T02:43:02;5.48;88.92
20862;DHT22;10591;52.532;13.348;2023-04-08T02:45:36;5.46;89.02
20862;DHT22;10591;52.532;13.348;2023-04-08T02:48:08;5.54;89.00
20862;DHT22;10591;52.532;13.348;2023-04-08T02:50:39;5.53;88.99
20862;DHT22;10591;52.532;13.348;2023-04-08T02:53:09;5.51;89.01
20862;DHT22;10591;52.532;13.348;2023-04-08T02:55:40;5.54;89.00
20862;DHT22;10591;52.532;13.348;2023-04-08T02:58:11;5.49;88.94
20862;DHT22;10591;52.532;13.348;2023-04-08T03:00:42;5.63;89.07
20862;DHT22;10591;52.532;13.348;2023-04-08T03:03:14;5.64;88.89
20862;DHT22;10591;52.532;13.348;2023-04-08T03:05:47;5.54;88.93
20862;DHT22;10591;52.532;13.348;2023-04-08T03:08:19;5.55;89.00
20862;DHT22;10591;52.532;13.348;2023-04-08T03:10:50;5.63;88.95
20862;DHT22;10591;52.532;13.348;2023-04-08T03:13:20;5.58;89.01
20862;DHT22;10591;52.532;13.348;2023-04-08T03:15:52;5.67;88.99
20862;DHT22;10591;52.532;13.348;2023-04-08T03:18:25;5.67;88.94
20862;DHT22;10591;52.532;13.348;2023-04-08T03:20:57;5.60;88.97
20862;DHT22;10591;52.532;13.348;2023-04-08T03:23:29;5.58;89.00
20862;DHT22;10591;52.532;13.348;2023-04-08T03:26:06;5.60;89.06
20862;DHT22;10591;52.532;13.348;2023-04-08T03:28:32;5.62;89.06
20862;DHT22;10591;52.532;13.348;2023-04-08T03:31:04;5.52;88.99
20862;DHT22;10591;52.532;13.348;2023-04-08T03:33:35;5.66;88.94
20862;DHT22;10591;52.532;13.348;2023-04-08T03:36:06;5.53;89.08
20862;DHT22;10591;52.532;13.348;2023-04-08T03:38:37;5.57;89.09
20862;DHT22;10591;52.532;13.348;2023-04-08T03:41:08;5.54;89.13
20862;DHT22;10591;52.532;13.348;2023-04-08T03:43:38;5.50;89.12
20862;DHT22;10591;52.532;13.348;2023-04-08T03:46:09;5.52;89.21
20862;DHT22;10591;52.532;13.348;2023-04-08T03:48:41;5.60;89.23
20862;DHT22;10591;52.532;13.348;2023-04-08T03:51:12;5.64;89.15
20862;DHT22;10591;52.532;13.348;2023-04-08T03:53:42;5.56;89.05
20862;DHT22;10591;52.532;13.348;2023-04-08T03:56:13;5.46;89.26
20862;DHT22;10591;52.532;13.348;2023-04-08T03:58:44;5.51;89.27
20862;DHT22;10591;52.532;13.348;2023-04-08T04:01:15;5.48;89.35
20862;DHT22;10591;52.532;13.348;2023-04-08T04:03:46;5.54;89.43
20862;DHT22;10591;52.532;13.348;2023-04-08T04:06:17;5.52;89.40
20862;DHT22;10591;52.532;13.348;2023-04-08T04:08:47;5.56;89.39
20862;DHT22;10591;52.532;13.348;2023-04-08T04:11:19;5.52;89.43
20862;DHT22;10591;52.532;13.348;2023-04-08T04:13:50;5.60;89.43
20862;DHT22;10591;52.532;13.348;2023-04-08T04:16:21;5.56;89.37
20862;DHT22;10591;52.532;13.348;2023-04-08T04:18:53;5.54;89.39
20862;DHT22;10591;52.532;13.348;2023-04-08T04:21:24;5.64;89.37
20862;DHT22;10591;52.532;13.348;2023-04-08T04:23:57;5.60;89.29
20862;DHT22;10591;52.532;13.348;2023-04-08T04:26:28;5.72;89.24
20862;DHT22;10591;52.532;13.348;2023-04-08T04:29:00;5.66;89.16
20862;DHT22;10591;52.532;13.348;2023-04-08T04:31:32;5.72;89.07
20862;DHT22;10591;52.532;13.348;2023-04-08T04:34:03;5.74;89.05
20862;DHT22;10591;52.532;13.348;2023-04-08T04:36:34;5.72;88.91
20862;DHT22;10591;52.532;13.348;2023-04-08T04:39:06;5.70;88.98
20862;DHT22;10591;52.532;13.348;2023-04-08T04:41:39;5.66;88.96
20862;DHT22;10591;52.532;13.348;2023-04-08T04:44:12;5.74;88.85
20862;DHT22;10591;52.532;13.348;2023-04-08T04:46:43;5.89;88.92
20862;DHT22;10591;52.532;13.348;2023-04-08T04:49:14;5.72;88.74
20862;DHT22;10591;52.532;13.348;2023-04-08T04:51:45;5.64;88.93
20862;DHT22;10591;52.532;13.348;2023-04-08T04:54:17;5.67;88.79
20862;DHT22;10591;52.532;13.348;2023-04-08T04:56:47;5.66;88.82
20862;DHT22;10591;52.532;13.348;2023-04-08T04:59:18;5.78;88.77
20862;DHT22;10591;52.532;13.348;2023-04-08T05:01:51;5.80;88.71
20862;DHT22;10591;52.532;13.348;2023-04-08T05:04:24;5.81;88.69
20862;DHT22;10591;52.532;13.348;2023-04-08T05:07:00;5.87;88.60
20862;DHT22;10591;52.532;13.348;2023-04-08T05:09:31;5.76;88.71
20862;DHT22;10591;52.532;13.348;2023-04-08T05:12:04;5.84;88.72
20862;DHT22;10591;52.532;13.348;2023-04-08T05:14:34;5.83;88.64
20862;DHT22;10591;52.532;13.348;2023-04-08T05:17:06;5.84;88.55
20862;DHT22;10591;52.532;13.348;2023-04-08T05:19:36;5.77;88.62
20862;DHT22;10591;52.532;13.348;2023-04-08T05:22:07;5.82;88.55
20862;DHT22;10591;52.532;13.348;2023-04-08T05:24:41;5.86;88.51
20862;DHT22;10591;52.532;13.348;2023-04-08T05:27:14;5.86;88.45
20862;DHT22;10591;52.532;13.348;2023-04-08T05:29:44;5.99;88.41
20862;DHT22;10591;52.532;13.348;2023-04-08T05:32:17;5.95;88.40
20862;DHT22;10591;52.532;13.348;2023-04-08T05:34:48;5.94;88.42
20862;DHT22;10591;52.532;13.348;2023-04-08T05:37:19;5.96;88.36
20862;DHT22;10591;52.532;13.348;2023-04-08T05:39:51;5.99;88.19
20862;DHT22;10591;52.532;13.348;2023-04-08T05:42:22;6.10;88.00
20862;DHT22;10591;52.532;13.348;2023-04-08T05:44:55;6.18;87.98
20862;DHT22;10591;52.532;13.348;2023-04-08T05:47:28;6.08;87.67
20862;DHT22;10591;52.532;13.348;2023-04-08T05:49:59;6.10;87.70
20862;DHT22;10591;52.532;13.348;2023-04-08T05:52:30;6.08;87.55
20862;DHT22;10591;52.532;13.348;2023-04-08T05:55:01;6.01;87.60
20862;DHT22;10591;52.532;13.348;2023-04-08T05:57:31;6.06;87.76
20862;DHT22;10591;52.532;13.348;2023-04-08T06:00:03;6.01;87.78
20862;DHT22;10591;52.532;13.348;2023-04-08T06:02:35;6.06;87.81
20862;DHT22;10591;52.532;13.348;2023-04-08T06:05:07;6.06;87.68
20862;DHT22;10591;52.532;13.348;2023-04-08T06:07:41;6.17;87.47
20862;DHT22;10591;52.532;13.348;2023-04-08T06:10:12;6.25;87.29
20862;DHT22;10591;52.532;13.348;2023-04-08T06:12:43;6.36;87.20
20862;DHT22;10591;52.532;13.348;2023-04-08T06:15:15;6.32;87.06
20862;DHT22;10591;52.532;13.348;2023-04-08T06:17:50;6.32;87.19
20862;DHT22;10591;52.532;13.348;2023-04-08T06:20:21;6.50;87.15
20862;DHT22;10591;52.532;13.348;2023-04-08T06:22:52;6.37;87.29
20862;DHT22;10591;52.532;13.348;2023-04-08T06:25:24;6.44;87.24
20862;DHT22;10591;52.532;13.348;2023-04-08T06:27:54;6.48;86.81
20862;DHT22;10591;52.532;13.348;2023-04-08T06:30:25;6.62;86.50
20862;DHT22;10591;52.532;13.348;2023-04-08T06:32:55;6.88;86.27
20862;DHT22;10591;52.532;13.348;2023-04-08T06:35:26;6.73;86.19
20862;DHT22;10591;52.532;13.348;2023-04-08T06:37:57;6.96;85.93
20862;DHT22;10591;52.532;13.348;2023-04-08T06:40:30;6.89;85.94
20862;DHT22;10591;52.532;13.348;2023-04-08T06:43:01;6.96;85.94
20862;DHT22;10591;52.532;13.348;2023-04-08T06:45:32;7.03;85.77
20862;DHT22;10591;52.532;13.348;2023-04-08T06:48:04;7.10;85.62
20862;DHT22;10591;52.532;13.348;2023-04-08T06:50:37;6.81;85.62
20862;DHT22;10591;52.532;13.348;2023-04-08T06:53:07;6.97;85.75
20862;DHT22;10591;52.532;13.348;2023-04-08T06:55:38;6.99;85.51
20862;DHT22;10591;52.532;13.348;2023-04-08T06:58:08;7.12;85.40
20862;DHT22;10591;52.532;13.348;2023-04-08T07:00:40;6.96;85.20
20862;DHT22;10591;52.532;13.348;2023-04-08T07:03:11;7.16;85.27
20862;DHT22;10591;52.532;13.348;2023-04-08T07:05:43;7.32;85.17
20862;DHT22;10591;52.532;13.348;2023-04-08T07:08:13;7.26;84.83
20862;DHT22;10591;52.532;13.348;2023-04-08T07:10:46;7.12;84.95
20862;DHT22;10591;52.532;13.348;2023-04-08T07:13:18;7.46;84.60
20862;DHT22;10591;52.532;13.348;2023-04-08T07:15:49;7.38;84.34
20862;DHT22;10591;52.532;13.348;2023-04-08T07:18:20;7.51;84.06
20862;DHT22;10591;52.532;13.348;2023-04-08T07:20:51;7.47;83.63
20862;DHT22;10591;52.532;13.348;2023-04-08T07:23:24;7.54;84.05
20862;DHT22;10591;52.532;13.348;2023-04-08T07:25:54;7.61;83.64
20862;DHT22;10591;52.532;13.348;2023-04-08T07:28:25;7.73;83.57
20862;DHT22;10591;52.532;13.348;2023-04-08T07:31:15;8.22;82.37
20862;DHT22;10591;52.532;13.348;2023-04-08T07:33:46;8.11;81.72
20862;DHT22;10591;52.532;13.348;2023-04-08T07:36:17;8.32;81.68
20862;DHT22;10591;52.532;13.348;2023-04-08T07:38:48;8.38;81.14
20862;DHT22;10591;52.532;13.348;2023-04-08T07:41:21;8.24;81.83
20862;DHT22;10591;52.532;13.348;2023-04-08T07:43:53;8.50;80.56
20862;DHT22;10591;52.532;13.348;2023-04-08T07:46:26;8.48;80.52
20862;DHT22;10591;52.532;13.348;2023-04-08T07:48:57;8.50;80.80
20862;DHT22;10591;52.532;13.348;2023-04-08T07:51:27;8.76;80.87
20862;DHT22;10591;52.532;13.348;2023-04-08T07:53:59;8.40;80.89
20862;DHT22;10591;52.532;13.348;2023-04-08T07:56:30;8.60;80.47
20862;DHT22;10591;52.532;13.348;2023-04-08T07:59:01;8.40;81.44
20862;DHT22;10591;52.532;13.348;2023-04-08T08:01:31;8.44;81.13
20862;DHT22;10591;52.532;13.348;2023-04-08T08:04:04;8.40;81.12
20862;DHT22;10591;52.532;13.348;2023-04-08T08:06:35;8.52;80.76
20862;DHT22;10591;52.532;13.348;2023-04-08T08:09:05;9.25;79.56
20862;DHT22;10591;52.532;13.348;2023-04-08T08:11:36;9.16;77.81
20862;DHT22;10591;52.532;13.348;2023-04-08T08:14:06;8.93;78.48
20862;DHT22;10591;52.532;13.348;2023-04-08T08:16:38;9.06;78.53
20862;DHT22;10591;52.532;13.348;2023-04-08T08:19:08;9.34;78.35
20862;DHT22;10591;52.532;13.348;2023-04-08T08:21:41;9.10;78.72
20862;DHT22;10591;52.532;13.348;2023-04-08T08:24:13;9.29;77.89
20862;DHT22;10591;52.532;13.348;2023-04-08T08:26:45;9.59;78.05
20862;DHT22;10591;52.532;13.348;2023-04-08T08:29:17;9.48;77.43
20862;DHT22;10591;52.532;13.348;2023-04-08T08:31:50;9.99;76.31
20862;DHT22;10591;52.532;13.348;2023-04-08T08:34:21;10.04;75.88
20862;DHT22;10591;52.532;13.348;2023-04-08T08:36:53;9.92;75.67
20862;DHT22;10591;52.532;13.348;2023-04-08T08:39:24;9.80;76.28
20862;DHT22;10591;52.532;13.348;2023-04-08T08:41:55;10.28;75.14
20862;DHT22;10591;52.532;13.348;2023-04-08T08:44:26;10.12;75.48
20862;DHT22;10591;52.532;13.348;2023-04-08T08:46:57;9.88;76.45
20862;DHT22;10591;52.532;13.348;2023-04-08T08:49:28;9.96;75.23
20862;DHT22;10591;52.532;13.348;2023-04-08T08:51:59;9.71;76.01
20862;DHT22;10591;52.532;13.348;2023-04-08T08:54:30;9.84;75.79
20862;DHT22;10591;52.532;13.348;2023-04-08T08:57:01;9.69;75.91
20862;DHT22;10591;52.532;13.348;2023-04-08T08:59:33;10.03;74.92
20862;DHT22;10591;52.532;13.348;2023-04-08T09:02:13;10.18;74.91
20862;DHT22;10591;52.532;13.348;2023-04-08T09:04:42;10.29;74.14
20862;DHT22;10591;52.532;13.348;2023-04-08T09:07:14;10.08;74.79
20862;DHT22;10591;52.532;13.348;2023-04-08T09:09:49;10.18;74.69
20862;DHT22;10591;52.532;13.348;2023-04-08T09:12:20;9.74;75.23
20862;DHT22;10591;52.532;13.348;2023-04-08T09:14:51;9.95;75.46
20862;DHT22;10591;52.532;13.348;2023-04-08T09:17:38;9.94;75.50
20862;DHT22;10591;52.532;13.348;2023-04-08T09:20:13;9.79;75.81
20862;DHT22;10591;52.532;13.348;2023-04-08T09:23:00;10.00;75.08
20862;DHT22;10591;52.532;13.348;2023-04-08T09:25:33;9.50;75.97
20862;DHT22;10591;52.532;13.348;2023-04-08T09:28:03;9.67;76.36
20862;DHT22;10591;52.532;13.348;2023-04-08T09:30:34;9.68;76.94
20862;DHT22;10591;52.532;13.348;2023-04-08T09:33:05;9.87;76.25
20862;DHT22;10591;52.532;13.348;2023-04-08T09:35:36;10.21;75.13
20862;DHT22;10591;52.532;13.348;2023-04-08T09:38:07;10.09;75.33
20862;DHT22;10591;52.532;13.348;2023-04-08T09:40:39;10.29;74.70
20862;DHT22;10591;52.532;13.348;2023-04-08T09:43:17;10.41;74.47
20862;DHT22;10591;52.532;13.348;2023-04-08T09:45:49;9.89;75.64
20862;DHT22;10591;52.532;13.348;2023-04-08T09:48:26;9.54;76.78
20862;DHT22;10591;52.532;13.348;2023-04-08T09:50:57;9.64;76.76
20862;DHT22;10591;52.532;13.348;2023-04-08T09:53:37;9.69;75.83
20862;DHT22;10591;52.532;13.348;2023-04-08T09:56:10;9.64;76.25
20862;DHT22;10591;52.532;13.348;2023-04-08T09:58:50;9.89;75.60
20862;DHT22;10591;52.532;13.348;2023-04-08T10:01:18;10.15;75.24
20862;DHT22;10591;52.532;13.348;2023-04-08T10:03:53;10.00;74.92
20862;DHT22;10591;52.532;13.348;2023-04-08T10:06:26;10.06;75.02
20862;DHT22;10591;52.532;13.348;2023-04-08T10:08:59;10.37;74.36
20862;DHT22;10591;52.532;13.348;2023-04-08T10:11:31;10.18;74.73
20862;DHT22;10591;52.532;13.348;2023-04-08T10:14:03;9.95;74.94
20862;DHT22;10591;52.532;13.348;2023-04-08T10:16:36;9.86;75.43
20862;DHT22;10591;52.532;13.348;2023-04-08T10:19:38;9.82;75.53
20862;DHT22;10591;52.532;13.348;2023-04-08T10:27:48;10.54;72.80
20862;DHT22;10591;52.532;13.348;2023-04-08T10:33:00;10.59;72.78
20862;DHT22;10591;52.532;13.348;2023-04-08T10:35:36;10.72;72.24
20862;DHT22;10591;52.532;13.348;2023-04-08T10:38:08;11.32;70.40
20862;DHT22;10591;52.532;13.348;2023-04-08T10:40:42;11.19;70.04
20862;DHT22;10591;52.532;13.348;2023-04-08T10:43:14;11.20;69.37
20862;DHT22;10591;52.532;13.348;2023-04-08T10:45:45;11.62;68.56
20862;DHT22;10591;52.532;13.348;2023-04-08T10:48:19;11.66;67.35
20862;DHT22;10591;52.532;13.348;2023-04-08T10:50:54;11.84;66.89
20862;DHT22;10591;52.532;13.348;2023-04-08T10:53:33;11.37;67.60
20862;DHT22;10591;52.532;13.348;2023-04-08T10:56:07;11.20;68.40
20862;DHT22;10591;52.532;13.348;2023-04-08T10:58:50;11.33;68.47
20862;DHT22;10591;52.532;13.348;2023-04-08T11:01:22;11.86;66.93
20862;DHT22;10591;52.532;13.348;2023-04-08T11:03:53;11.81;66.36
20862;DHT22;10591;52.532;13.348;2023-04-08T11:06:24;11.88;66.81
20862;DHT22;10591;52.532;13.348;2023-04-08T11:08:57;11.88;66.29
20862;DHT22;10591;52.532;13.348;2023-04-08T11:11:30;11.88;64.88
20862;DHT22;10591;52.532;13.348;2023-04-08T11:14:01;12.16;64.64
20862;DHT22;10591;52.532;13.348;2023-04-08T11:16:36;12.26;64.11
20862;DHT22;10591;52.532;13.348;2023-04-08T11:19:08;12.18;63.91
20862;DHT22;10591;52.532;13.348;2023-04-08T11:21:41;12.25;64.29
20862;DHT22;10591;52.532;13.348;2023-04-08T11:24:11;12.14;63.93
20862;DHT22;10591;52.532;13.348;2023-04-08T11:26:43;11.90;65.21
20862;DHT22;10591;52.532;13.348;2023-04-08T11:29:14;11.87;65.96
20862;DHT22;10591;52.532;13.348;2023-04-08T11:32:02;12.01;65.25
20862;DHT22;10591;52.532;13.348;2023-04-08T11:34:37;12.04;65.09
20862;DHT22;10591;52.532;13.348;2023-04-08T11:37:05;12.12;65.33
20862;DHT22;10591;52.532;13.348;2023-04-08T11:39:43;12.42;64.85
20862;DHT22;10591;52.532;13.348;2023-04-08T11:42:30;12.41;63.75
20862;DHT22;10591;52.532;13.348;2023-04-08T11:45:11;12.72;62.98
20862;DHT22;10591;52.532;13.348;2023-04-08T11:47:42;12.72;62.93
20862;DHT22;10591;52.532;13.348;2023-04-08T11:50:25;12.20;63.30
20862;DHT22;10591;52.532;13.348;2023-04-08T11:52:58;11.90;64.61
20862;DHT22;10591;52.532;13.348;2023-04-08T11:55:33;11.85;64.58
20862;DHT22;10591;52.532;13.348;2023-04-08T11:58:04;11.94;64.77
20862;DHT22;10591;52.532;13.348;2023-04-08T12:00:36;11.98;64.38
20862;DHT22;10591;52.532;13.348;2023-04-08T12:03:10;11.83;64.83
20862;DHT22;10591;52.532;13.348;2023-04-08T12:05:42;11.72;64.73
20862;DHT22;10591;52.532;13.348;2023-04-08T12:08:14;11.72;64.98
20862;DHT22;10591;52.532;13.348;2023-04-08T12:10:48;11.88;65.23
20862;DHT22;10591;52.532;13.348;2023-04-08T12:13:18;11.70;66.09
20862;DHT22;10591;52.532;13.348;2023-04-08T12:15:51;11.58;66.13
20862;DHT22;10591;52.532;13.348;2023-04-08T12:18:21;11.70;65.92
20862;DHT22;10591;52.532;13.348;2023-04-08T12:20:52;11.51;66.25
20862;DHT22;10591;52.532;13.348;2023-04-08T12:23:23;11.58;66.57
20862;DHT22;10591;52.532;13.348;2023-04-08T12:25:54;11.81;65.09
20862;DHT22;10591;52.532;13.348;2023-04-08T12:28:25;12.19;63.34
20862;DHT22;10591;52.532;13.348;2023-04-08T12:30:57;12.34;62.23
20862;DHT22;10591;52.532;13.348;2023-04-08T12:33:28;12.15;61.74
20862;DHT22;10591;52.532;13.348;2023-04-08T12:36:01;11.56;62.76
20862;DHT22;10591;52.532;13.348;2023-04-08T12:38:32;12.04;62.33
20862;DHT22;10591;52.532;13.348;2023-04-08T12:41:02;12.58;60.55
20862;DHT22;10591;52.532;13.348;2023-04-08T12:43:33;12.26;60.90
20862;DHT22;10591;52.532;13.348;2023-04-08T12:46:05;12.43;60.64
20862;DHT22;10591;52.532;13.348;2023-04-08T12:48:36;12.09;61.59
20862;DHT22;10591;52.532;13.348;2023-04-08T12:51:07;12.41;60.81
20862;DHT22;10591;52.532;13.348;2023-04-08T12:53:39;12.86;59.58
20862;DHT22;10591;52.532;13.348;2023-04-08T12:56:10;13.56;57.77
20862;DHT22;10591;52.532;13.348;2023-04-08T12:58:43;13.38;58.31
20862;DHT22;10591;52.532;13.348;2023-04-08T13:01:17;13.02;60.21
20862;DHT22;10591;52.532;13.348;2023-04-08T13:03:48;13.02;60.07
20862;DHT22;10591;52.532;13.348;2023-04-08T13:06:19;12.97;60.84
20862;DHT22;10591;52.532;13.348;2023-04-08T13:08:49;12.85;61.14
20862;DHT22;10591;52.532;13.348;2023-04-08T13:11:20;12.67;61.37
20862;DHT22;10591;52.532;13.348;2023-04-08T13:13:51;12.64;62.08
20862;DHT22;10591;52.532;13.348;2023-04-08T13:16:24;12.37;62.70
20862;DHT22;10591;52.532;13.348;2023-04-08T13:18:54;12.00;63.74
20862;DHT22;10591;52.532;13.348;2023-04-08T13:21:25;11.92;63.81
20862;DHT22;10591;52.532;13.348;2023-04-08T13:23:57;12.38;62.44
20862;DHT22;10591;52.532;13.348;2023-04-08T13:26:30;12.64;61.48
20862;DHT22;10591;52.532;13.348;2023-04-08T13:29:01;12.83;60.13
20862;DHT22;10591;52.532;13.348;2023-04-08T13:31:32;12.64;59.81
20862;DHT22;10591;52.532;13.348;2023-04-08T13:34:04;12.20;59.88
20862;DHT22;10591;52.532;13.348;2023-04-08T13:36:35;12.60;59.33
20862;DHT22;10591;52.532;13.348;2023-04-08T13:39:06;12.94;57.41
20862;DHT22;10591;52.532;13.348;2023-04-08T13:41:36;13.36;56.79
20862;DHT22;10591;52.532;13.348;2023-04-08T13:44:07;13.64;55.77
20862;DHT22;10591;52.532;13.348;2023-04-08T13:46:40;13.61;55.67
20862;DHT22;10591;52.532;13.348;2023-04-08T13:49:11;13.70;55.44
20862;DHT22;10591;52.532;13.348;2023-04-08T13:51:42;12.72;55.69
20862;DHT22;10591;52.532;13.348;2023-04-08T13:54:14;12.74;55.87
20862;DHT22;10591;52.532;13.348;2023-04-08T13:56:49;12.96;55.25
20862;DHT22;10591;52.532;13.348;2023-04-08T13:59:19;13.14;55.09
20862;DHT22;10591;52.532;13.348;2023-04-08T14:01:50;13.16;55.25
20862;DHT22;10591;52.532;13.348;2023-04-08T14:04:23;13.39;54.58
20862;DHT22;10591;52.532;13.348;2023-04-08T14:06:53;14.01;53.43
20862;DHT22;10591;52.532;13.348;2023-04-08T14:09:26;14.24;53.19
20862;DHT22;10591;52.532;13.348;2023-04-08T14:11:57;14.15;54.31
20862;DHT22;10591;52.532;13.348;2023-04-08T14:14:27;13.71;55.74
20862;DHT22;10591;52.532;13.348;2023-04-08T14:16:58;13.13;57.66
20862;DHT22;10591;52.532;13.348;2023-04-08T14:19:34;12.85;58.46
20862;DHT22;10591;52.532;13.348;2023-04-08T14:22:04;12.76;57.80
20862;DHT22;10591;52.532;13.348;2023-04-08T14:24:36;12.64;57.10
20862;DHT22;10591;52.532;13.348;2023-04-08T14:27:07;12.46;57.91
20862;DHT22;10591;52.532;13.348;2023-04-08T14:29:41;12.51;57.29
20862;DHT22;10591;52.532;13.348;2023-04-08T14:32:12;12.60;56.81
20862;DHT22;10591;52.532;13.348;2023-04-08T14:34:43;12.66;56.33
20862;DHT22;10591;52.532;13.348;2023-04-08T14:37:14;12.64;56.39
20862;DHT22;10591;52.532;13.348;2023-04-08T14:39:46;12.38;57.27
20862;DHT22;10591;52.532;13.348;2023-04-08T14:42:18;12.38;57.45
20862;DHT22;10591;52.532;13.348;2023-04-08T14:44:51;12.36;57.21
20862;DHT22;10591;52.532;13.348;2023-04-08T14:47:21;12.48;56.22
20862;DHT22;10591;52.532;13.348;2023-04-08T14:49:55;13.06;55.44
20862;DHT22;10591;52.532;13.348;2023-04-08T14:52:28;13.60;53.68
20862;DHT22;10591;52.532;13.348;2023-04-08T14:55:00;13.58;53.10
20862;DHT22;10591;52.532;13.348;2023-04-08T14:57:31;13.32;52.82
20862;DHT22;10591;52.532;13.348;2023-04-08T15:00:02;12.96;54.05
20862;DHT22;10591;52.532;13.348;2023-04-08T15:02:33;12.88;54.28
20862;DHT22;10591;52.532;13.348;2023-04-08T15:05:06;13.28;53.75
20862;DHT22;10591;52.532;13.348;2023-04-08T15:07:37;13.37;53.71
20862;DHT22;10591;52.532;13.348;2023-04-08T15:10:09;13.66;53.29
20862;DHT22;10591;52.532;13.348;2023-04-08T15:12:40;13.36;53.25
20862;DHT22;10591;52.532;13.348;2023-04-08T15:15:11;13.11;53.82
20862;DHT22;10591;52.532;13.348;2023-04-08T15:17:41;12.90;54.46
20862;DHT22;10591;52.532;13.348;2023-04-08T15:20:17;12.64;55.64
20862;DHT22;10591;52.532;13.348;2023-04-08T15:22:48;12.49;55.35
20862;DHT22;10591;52.532;13.348;2023-04-08T15:25:18;12.30;55.77
20862;DHT22;10591;52.532;13.348;2023-04-08T15:27:49;12.18;56.38
20862;DHT22;10591;52.532;13.348;2023-04-08T15:30:20;12.22;56.45
20862;DHT22;10591;52.532;13.348;2023-04-08T15:32:53;12.38;56.41
20862;DHT22;10591;52.532;13.348;2023-04-08T15:35:25;12.56;56.11
20862;DHT22;10591;52.532;13.348;2023-04-08T15:37:59;12.65;55.53
20862;DHT22;10591;52.532;13.348;2023-04-08T15:40:37;12.92;55.36
20862;DHT22;10591;52.532;13.348;2023-04-08T15:43:04;12.80;54.80
20862;DHT22;10591;52.532;13.348;2023-04-08T15:45:41;12.95;54.59
20862;DHT22;10591;52.532;13.348;2023-04-08T15:48:15;12.91;54.73
20862;DHT22;10591;52.532;13.348;2023-04-08T15:50:45;13.06;54.33
20862;DHT22;10591;52.532;13.348;2023-04-08T15:53:15;12.92;54.58
20862;DHT22;10591;52.532;13.348;2023-04-08T15:55:46;12.96;54.77
20862;DHT22;10591;52.532;13.348;2023-04-08T15:58:18;13.04;54.39
20862;DHT22;10591;52.532;13.348;2023-04-08T16:00:49;13.11;54.42
20862;DHT22;10591;52.532;13.348;2023-04-08T16:03:21;12.96;54.86
20862;DHT22;10591;52.532;13.348;2023-04-08T16:05:52;13.01;54.92
20862;DHT22;10591;52.532;13.348;2023-04-08T16:08:22;13.01;55.16